Airfield :
LOGIN :

Register | Disclaimer

   EN    FR    IT 

 










Legend :    VFR   Marginal VFR   IFR   Intensive IFR   Very Intensive IFR
Visi :
Ceiling :
>= 8 km
>= 3000ft
5 to 8 km
1000 to 3000 ft
1500m to 5 km
500 to 1000 ft
800 to 1500m
200 to 500 ft
< 800m
< 200 ft
Symbols :   Thunderstorms  Fog  Heavy snow  Heavy precipitations  Wind > 20 kt
SIGMETs :     Misc.  Thunderstorms  Icing  Turbulence  Mountain Waves  Volcanic Ashes







- Airport Elevation : 74 ft
- IATA code : MRS
- Download approach charts


LFML - Marseille / Marignane

CURRENT METAR :
  • 180830Z AUTO 21010KT CAVOK 28/15 Q1015 NOSIG

EXPIRED METARs :
  • 180800Z AUTO 28004KT 240V320 CAVOK 28/13 Q1015 NOSIG
  • 180730Z AUTO 30003KT 260V330 CAVOK 26/13 Q1015 NOSIG
  • 180700Z AUTO 26004KT 180V310 CAVOK 24/15 Q1015 NOSIG
  • 180630Z AUTO 25005KT CAVOK 23/16 Q1015 NOSIG

TAF TAF LFML
Valid from the 18 at 09:00 until the 19 at 15:00 UTC


180800Z 1809/1915 VRB05KT CAVOK TX30/1812Z TN18/1903Z
TEMPO 1812/1818 22010KT
TEMPO 1906/1915 18013KT
ATIS : +33 4 42 31 15 15
No reported NOTAMs for that airfield.



MET'MAP, your aeronautical weather chart ! - Copyright ORBIFLY December 2007 - Disclaimer

ORBIFLY MET'MAP TEAM :

Programming & Development : Alexandra Zaïnal
Concept & Development : Baudouin d'Aumeries
Co-Development & Prog : Marc-Olivier Méhu
Technical & hardware support : Manuel Goepfert

Contact : metmap@orbifly.com




SOURCES & CREDITS :

   NOAA